Terminal Aerodrome Forecast
Issued by NWS

Home | Current Version | Previous Version | Text Only | Print | Product List | Glossary On
Versions: 1 2 3 4 5 6 7 8 9 10 11 12 13 14 15 16 17 18 19
000
FTUS46 KSTO 070500
TAFSCK
TAF
KSCK 070531Z 0706/0806 27011G18KT P6SM FEW080
     FM071300 27008KT P6SM VCSH SCT080 SCT200
     FM072100 31013G20KT P6SM SCT100 BKN200
     FM080300 VRB05KT P6SM BKN250=

USA.gov is the U.S. government's official web portal to all federal, state and local government web resources and services.